Greater Rochester International Airport
KROC : now visible

Airfield :











YOU CAN JOIN US ON...

 
LOGIN :

Register | Disclaimer

   EN    FR    IT 

 









Legend :    VFR   Marginal VFR   IFR   Intensive IFR   Very Intensive IFR
Visi :
Ceiling :
>= 8 km
>= 3000ft
5 to 8 km
1000 to 3000 ft
1500m to 5 km
500 to 1000 ft
800 to 1500m
200 to 500 ft
< 800m
< 200 ft
Symbols :   Thunderstorms  Fog  Heavy snow  Heavy precipitations  Wind > 20 kt






- Airport Elevation : 559 ft
- IATA code : ROC


KROC - Greater Rochester International

CURRENT METAR :
  • 072054Z 02011KT 10SM FEW050 FEW080 SCT180 24/14 A3013 RMK AO2 SLP203 TCU DSNT S T02440144 57007 $

EXPIRED METARs :
  • 071954Z 03011KT 10SM FEW055 FEW200 24/14 A3013 RMK AO2 SLP205 T02440144 $
  • 071854Z 03011G16KT 10SM FEW055 FEW200 24/16 A3014 RMK AO2 SLP208 T02390156

TAF KROC
Valid from the 07 at 21:00 until the 08 at 18:00 UTC


072105Z 0721/0818 02011KT P6SM FEW050 SCT180
FM080100 VRB03KT P6SM FEW100
KZOB FIR / North America



MET'MAP, your aeronautical weather chart ! - Copyright ORBIFLY December 2007 - Disclaimer

ORBIFLY MET'MAP TEAM :

Programming & Development : Alexandra Zaïnal
Concept & original design : Baudouin d'Aumeries
Assistance for programming : Marc-Olivier Méhu
Technical & hardware support : Manuel Goepfert

Contact : metmap@orbifly.com




SOURCES & CREDITS :

   NOAA       Earth
Advisory